sensor_id;sensor_type;location;lat;lon;timestamp;P1;durP1;ratioP1;P2;durP2;ratioP2
15536;SDS011;7870;52.448;13.270;2023-02-18T00:00:20;20.83;;;4.47;;
15536;SDS011;7870;52.448;13.270;2023-02-18T00:02:48;19.60;;;4.07;;
15536;SDS011;7870;52.448;13.270;2023-02-18T00:05:17;14.00;;;3.80;;
15536;SDS011;7870;52.448;13.270;2023-02-18T00:07:44;16.60;;;4.38;;
15536;SDS011;7870;52.448;13.270;2023-02-18T00:10:11;15.82;;;5.72;;
15536;SDS011;7870;52.448;13.270;2023-02-18T00:12:39;17.90;;;4.30;;
15536;SDS011;7870;52.448;13.270;2023-02-18T00:15:05;17.90;;;4.57;;
15536;SDS011;7870;52.448;13.270;2023-02-18T00:17:33;13.27;;;3.95;;
15536;SDS011;7870;52.448;13.270;2023-02-18T00:19:59;17.65;;;4.07;;
15536;SDS011;7870;52.448;13.270;2023-02-18T00:22:26;15.93;;;4.20;;
15536;SDS011;7870;52.448;13.270;2023-02-18T00:24:52;14.85;;;4.22;;
15536;SDS011;7870;52.448;13.270;2023-02-18T00:27:19;17.98;;;3.70;;
15536;SDS011;7870;52.448;13.270;2023-02-18T00:29:45;21.88;;;4.45;;
15536;SDS011;7870;52.448;13.270;2023-02-18T00:32:12;12.20;;;3.47;;
15536;SDS011;7870;52.448;13.270;2023-02-18T00:34:38;12.52;;;3.35;;
15536;SDS011;7870;52.448;13.270;2023-02-18T00:37:05;16.17;;;3.60;;
15536;SDS011;7870;52.448;13.270;2023-02-18T00:39:32;14.60;;;3.88;;
15536;SDS011;7870;52.448;13.270;2023-02-18T00:41:58;15.63;;;5.20;;
15536;SDS011;7870;52.448;13.270;2023-02-18T00:44:25;14.45;;;3.72;;
15536;SDS011;7870;52.448;13.270;2023-02-18T00:46:51;14.93;;;3.63;;
15536;SDS011;7870;52.448;13.270;2023-02-18T00:49:18;13.43;;;3.72;;
15536;SDS011;7870;52.448;13.270;2023-02-18T00:51:45;15.38;;;3.40;;
15536;SDS011;7870;52.448;13.270;2023-02-18T00:54:11;13.85;;;3.80;;
15536;SDS011;7870;52.448;13.270;2023-02-18T00:56:38;10.00;;;2.75;;
15536;SDS011;7870;52.448;13.270;2023-02-18T00:59:04;14.60;;;4.13;;
15536;SDS011;7870;52.448;13.270;2023-02-18T01:01:31;18.40;;;3.97;;
15536;SDS011;7870;52.448;13.270;2023-02-18T01:03:58;14.68;;;3.88;;
15536;SDS011;7870;52.448;13.270;2023-02-18T01:06:24;13.75;;;3.10;;
15536;SDS011;7870;52.448;13.270;2023-02-18T01:08:51;17.67;;;3.65;;
15536;SDS011;7870;52.448;13.270;2023-02-18T01:11:18;14.13;;;3.67;;
15536;SDS011;7870;52.448;13.270;2023-02-18T01:13:44;12.25;;;3.22;;
15536;SDS011;7870;52.448;13.270;2023-02-18T01:16:11;10.48;;;2.97;;
15536;SDS011;7870;52.448;13.270;2023-02-18T01:18:38;12.73;;;3.58;;
15536;SDS011;7870;52.448;13.270;2023-02-18T01:21:05;12.25;;;3.75;;
15536;SDS011;7870;52.448;13.270;2023-02-18T01:23:35;16.50;;;4.30;;
15536;SDS011;7870;52.448;13.270;2023-02-18T01:26:03;13.63;;;3.67;;
15536;SDS011;7870;52.448;13.270;2023-02-18T01:28:30;21.38;;;4.35;;
15536;SDS011;7870;52.448;13.270;2023-02-18T01:30:57;10.55;;;3.13;;
15536;SDS011;7870;52.448;13.270;2023-02-18T01:33:24;12.98;;;3.53;;
15536;SDS011;7870;52.448;13.270;2023-02-18T01:35:51;14.43;;;3.80;;
15536;SDS011;7870;52.448;13.270;2023-02-18T01:38:18;17.88;;;4.03;;
15536;SDS011;7870;52.448;13.270;2023-02-18T01:40:46;10.30;;;2.83;;
15536;SDS011;7870;52.448;13.270;2023-02-18T01:43:14;13.02;;;4.40;;
15536;SDS011;7870;52.448;13.270;2023-02-18T01:45:44;12.25;;;4.13;;
15536;SDS011;7870;52.448;13.270;2023-02-18T01:48:17;14.70;;;2.97;;
15536;SDS011;7870;52.448;13.270;2023-02-18T01:50:52;13.45;;;2.80;;
15536;SDS011;7870;52.448;13.270;2023-02-18T01:53:21;12.48;;;3.38;;
15536;SDS011;7870;52.448;13.270;2023-02-18T01:55:51;12.43;;;3.53;;
15536;SDS011;7870;52.448;13.270;2023-02-18T01:58:18;17.60;;;3.90;;
15536;SDS011;7870;52.448;13.270;2023-02-18T02:00:45;17.02;;;4.15;;
15536;SDS011;7870;52.448;13.270;2023-02-18T02:03:13;14.60;;;4.20;;
15536;SDS011;7870;52.448;13.270;2023-02-18T02:05:41;15.45;;;4.10;;
15536;SDS011;7870;52.448;13.270;2023-02-18T02:08:11;15.32;;;3.67;;
15536;SDS011;7870;52.448;13.270;2023-02-18T02:10:47;14.35;;;3.58;;
15536;SDS011;7870;52.448;13.270;2023-02-18T02:13:38;12.32;;;3.15;;
15536;SDS011;7870;52.448;13.270;2023-02-18T02:19:13;14.40;;;3.38;;
15536;SDS011;7870;52.448;13.270;2023-02-18T02:24:31;13.48;;;4.13;;
15536;SDS011;7870;52.448;13.270;2023-02-18T02:27:22;13.32;;;3.10;;
15536;SDS011;7870;52.448;13.270;2023-02-18T02:30:00;12.45;;;3.22;;
15536;SDS011;7870;52.448;13.270;2023-02-18T02:32:59;13.13;;;3.58;;
15536;SDS011;7870;52.448;13.270;2023-02-18T02:35:43;14.30;;;4.57;;
15536;SDS011;7870;52.448;13.270;2023-02-18T02:38:31;12.73;;;3.28;;
15536;SDS011;7870;52.448;13.270;2023-02-18T02:44:21;14.23;;;5.25;;
15536;SDS011;7870;52.448;13.270;2023-02-18T02:49:38;13.95;;;3.67;;
15536;SDS011;7870;52.448;13.270;2023-02-18T02:52:18;10.55;;;2.58;;
15536;SDS011;7870;52.448;13.270;2023-02-18T02:54:47;12.93;;;2.85;;
15536;SDS011;7870;52.448;13.270;2023-02-18T02:59:58;15.38;;;3.47;;
15536;SDS011;7870;52.448;13.270;2023-02-18T03:16:43;11.18;;;2.90;;
15536;SDS011;7870;52.448;13.270;2023-02-18T03:24:24;11.10;;;3.72;;
15536;SDS011;7870;52.448;13.270;2023-02-18T03:27:02;12.70;;;3.77;;
15536;SDS011;7870;52.448;13.270;2023-02-18T03:29:32;8.60;;;2.33;;
15536;SDS011;7870;52.448;13.270;2023-02-18T03:32:02;10.65;;;2.83;;
15536;SDS011;7870;52.448;13.270;2023-02-18T03:34:31;10.02;;;3.22;;
15536;SDS011;7870;52.448;13.270;2023-02-18T03:37:00;12.27;;;3.70;;
15536;SDS011;7870;52.448;13.270;2023-02-18T03:39:28;15.82;;;3.03;;
15536;SDS011;7870;52.448;13.270;2023-02-18T03:41:56;10.85;;;2.80;;
15536;SDS011;7870;52.448;13.270;2023-02-18T03:44:23;10.20;;;2.45;;
15536;SDS011;7870;52.448;13.270;2023-02-18T03:46:51;8.23;;;2.55;;
15536;SDS011;7870;52.448;13.270;2023-02-18T03:49:17;10.80;;;2.47;;
15536;SDS011;7870;52.448;13.270;2023-02-18T03:51:46;10.65;;;3.53;;
15536;SDS011;7870;52.448;13.270;2023-02-18T03:54:12;10.02;;;2.25;;
15536;SDS011;7870;52.448;13.270;2023-02-18T03:56:41;8.40;;;2.45;;
15536;SDS011;7870;52.448;13.270;2023-02-18T03:59:07;9.65;;;2.83;;
15536;SDS011;7870;52.448;13.270;2023-02-18T04:01:34;9.45;;;3.17;;
15536;SDS011;7870;52.448;13.270;2023-02-18T04:04:01;12.93;;;2.92;;
15536;SDS011;7870;52.448;13.270;2023-02-18T04:06:28;11.77;;;3.20;;
15536;SDS011;7870;52.448;13.270;2023-02-18T04:08:54;7.22;;;2.13;;
15536;SDS011;7870;52.448;13.270;2023-02-18T04:11:21;9.25;;;2.97;;
15536;SDS011;7870;52.448;13.270;2023-02-18T04:13:47;13.32;;;3.10;;
15536;SDS011;7870;52.448;13.270;2023-02-18T04:16:14;9.40;;;2.83;;
15536;SDS011;7870;52.448;13.270;2023-02-18T04:18:41;10.80;;;2.47;;
15536;SDS011;7870;52.448;13.270;2023-02-18T04:21:07;7.68;;;2.28;;
15536;SDS011;7870;52.448;13.270;2023-02-18T04:23:34;8.65;;;2.72;;
15536;SDS011;7870;52.448;13.270;2023-02-18T04:26:00;7.00;;;2.45;;
15536;SDS011;7870;52.448;13.270;2023-02-18T04:28:27;8.13;;;3.60;;
15536;SDS011;7870;52.448;13.270;2023-02-18T04:30:53;9.00;;;2.28;;
15536;SDS011;7870;52.448;13.270;2023-02-18T04:33:20;9.02;;;2.60;;
15536;SDS011;7870;52.448;13.270;2023-02-18T04:35:47;10.57;;;2.58;;
15536;SDS011;7870;52.448;13.270;2023-02-18T04:38:13;11.48;;;3.28;;
15536;SDS011;7870;52.448;13.270;2023-02-18T04:40:40;12.85;;;2.70;;
15536;SDS011;7870;52.448;13.270;2023-02-18T04:43:06;10.15;;;2.38;;
15536;SDS011;7870;52.448;13.270;2023-02-18T04:45:33;10.77;;;2.90;;
15536;SDS011;7870;52.448;13.270;2023-02-18T04:47:59;6.63;;;1.90;;
15536;SDS011;7870;52.448;13.270;2023-02-18T04:50:26;8.88;;;2.38;;
15536;SDS011;7870;52.448;13.270;2023-02-18T04:52:52;8.57;;;2.38;;
15536;SDS011;7870;52.448;13.270;2023-02-18T04:55:19;8.52;;;2.35;;
15536;SDS011;7870;52.448;13.270;2023-02-18T04:57:45;9.68;;;2.97;;
15536;SDS011;7870;52.448;13.270;2023-02-18T05:00:16;13.07;;;3.35;;
15536;SDS011;7870;52.448;13.270;2023-02-18T05:02:43;13.77;;;3.70;;
15536;SDS011;7870;52.448;13.270;2023-02-18T05:05:11;10.25;;;3.17;;
15536;SDS011;7870;52.448;13.270;2023-02-18T05:07:38;8.82;;;3.03;;
15536;SDS011;7870;52.448;13.270;2023-02-18T05:10:05;12.02;;;2.58;;
15536;SDS011;7870;52.448;13.270;2023-02-18T05:12:32;10.48;;;3.97;;
15536;SDS011;7870;52.448;13.270;2023-02-18T05:14:59;9.13;;;2.70;;
15536;SDS011;7870;52.448;13.270;2023-02-18T05:17:25;9.45;;;3.15;;
15536;SDS011;7870;52.448;13.270;2023-02-18T05:19:52;7.72;;;2.90;;
15536;SDS011;7870;52.448;13.270;2023-02-18T05:22:18;11.02;;;3.10;;
15536;SDS011;7870;52.448;13.270;2023-02-18T05:24:45;11.68;;;3.40;;
15536;SDS011;7870;52.448;13.270;2023-02-18T05:27:11;9.00;;;2.13;;
15536;SDS011;7870;52.448;13.270;2023-02-18T05:29:38;10.30;;;2.55;;
15536;SDS011;7870;52.448;13.270;2023-02-18T05:32:04;7.45;;;2.45;;
15536;SDS011;7870;52.448;13.270;2023-02-18T05:34:31;10.43;;;2.72;;
15536;SDS011;7870;52.448;13.270;2023-02-18T05:36:57;7.50;;;2.00;;
15536;SDS011;7870;52.448;13.270;2023-02-18T05:39:24;8.25;;;2.20;;
15536;SDS011;7870;52.448;13.270;2023-02-18T05:41:50;8.68;;;2.85;;
15536;SDS011;7870;52.448;13.270;2023-02-18T05:44:17;11.18;;;2.80;;
15536;SDS011;7870;52.448;13.270;2023-02-18T05:46:59;6.68;;;2.70;;
15536;SDS011;7870;52.448;13.270;2023-02-18T05:49:29;8.52;;;2.72;;
15536;SDS011;7870;52.448;13.270;2023-02-18T05:51:59;11.95;;;1.85;;
15536;SDS011;7870;52.448;13.270;2023-02-18T05:54:27;7.35;;;1.60;;
15536;SDS011;7870;52.448;13.270;2023-02-18T05:57:00;10.07;;;2.13;;
15536;SDS011;7870;52.448;13.270;2023-02-18T05:59:30;12.57;;;2.53;;
15536;SDS011;7870;52.448;13.270;2023-02-18T06:02:00;8.15;;;2.03;;
15536;SDS011;7870;52.448;13.270;2023-02-18T06:04:28;9.60;;;2.17;;
15536;SDS011;7870;52.448;13.270;2023-02-18T06:06:59;9.25;;;2.53;;
15536;SDS011;7870;52.448;13.270;2023-02-18T06:09:26;5.57;;;2.00;;
15536;SDS011;7870;52.448;13.270;2023-02-18T06:11:59;9.45;;;2.22;;
15536;SDS011;7870;52.448;13.270;2023-02-18T06:14:30;8.63;;;2.50;;
15536;SDS011;7870;52.448;13.270;2023-02-18T06:16:57;8.65;;;1.92;;
15536;SDS011;7870;52.448;13.270;2023-02-18T06:19:29;6.90;;;1.95;;
15536;SDS011;7870;52.448;13.270;2023-02-18T06:21:55;9.43;;;2.00;;
15536;SDS011;7870;52.448;13.270;2023-02-18T06:24:22;6.35;;;2.20;;
15536;SDS011;7870;52.448;13.270;2023-02-18T06:26:49;10.00;;;2.17;;
15536;SDS011;7870;52.448;13.270;2023-02-18T06:29:16;6.55;;;1.92;;
15536;SDS011;7870;52.448;13.270;2023-02-18T06:31:43;10.00;;;2.40;;
15536;SDS011;7870;52.448;13.270;2023-02-18T06:34:13;8.70;;;2.47;;
15536;SDS011;7870;52.448;13.270;2023-02-18T06:36:39;6.85;;;3.10;;
15536;SDS011;7870;52.448;13.270;2023-02-18T06:39:07;11.85;;;2.58;;
15536;SDS011;7870;52.448;13.270;2023-02-18T06:41:34;10.25;;;2.03;;
15536;SDS011;7870;52.448;13.270;2023-02-18T06:44:05;8.45;;;2.03;;
15536;SDS011;7870;52.448;13.270;2023-02-18T06:46:32;6.93;;;1.92;;
15536;SDS011;7870;52.448;13.270;2023-02-18T06:48:59;11.38;;;1.95;;
15536;SDS011;7870;52.448;13.270;2023-02-18T06:51:27;6.63;;;3.60;;
15536;SDS011;7870;52.448;13.270;2023-02-18T06:53:57;7.05;;;1.77;;
15536;SDS011;7870;52.448;13.270;2023-02-18T06:56:31;12.77;;;2.42;;
15536;SDS011;7870;52.448;13.270;2023-02-18T06:58:58;6.22;;;1.70;;
15536;SDS011;7870;52.448;13.270;2023-02-18T07:01:25;6.32;;;1.60;;
15536;SDS011;7870;52.448;13.270;2023-02-18T07:03:52;5.82;;;1.80;;
15536;SDS011;7870;52.448;13.270;2023-02-18T07:06:19;3.95;;;1.30;;
15536;SDS011;7870;52.448;13.270;2023-02-18T07:08:46;7.40;;;1.40;;
15536;SDS011;7870;52.448;13.270;2023-02-18T07:11:12;5.57;;;1.42;;
15536;SDS011;7870;52.448;13.270;2023-02-18T07:13:39;7.30;;;1.85;;
15536;SDS011;7870;52.448;13.270;2023-02-18T07:16:05;8.48;;;2.03;;
15536;SDS011;7870;52.448;13.270;2023-02-18T07:18:33;5.28;;;1.95;;
15536;SDS011;7870;52.448;13.270;2023-02-18T07:20:59;8.07;;;1.75;;
15536;SDS011;7870;52.448;13.270;2023-02-18T07:23:26;5.05;;;1.55;;
15536;SDS011;7870;52.448;13.270;2023-02-18T07:26:01;8.85;;;2.08;;
15536;SDS011;7870;52.448;13.270;2023-02-18T07:28:31;8.07;;;1.80;;
15536;SDS011;7870;52.448;13.270;2023-02-18T07:30:58;9.20;;;1.92;;
15536;SDS011;7870;52.448;13.270;2023-02-18T07:33:24;7.78;;;1.33;;
15536;SDS011;7870;52.448;13.270;2023-02-18T07:35:52;4.75;;;1.55;;
15536;SDS011;7870;52.448;13.270;2023-02-18T07:38:22;8.50;;;1.73;;
15536;SDS011;7870;52.448;13.270;2023-02-18T07:40:50;7.90;;;3.28;;
15536;SDS011;7870;52.448;13.270;2023-02-18T07:43:16;6.65;;;1.98;;
15536;SDS011;7870;52.448;13.270;2023-02-18T07:45:43;7.03;;;1.65;;
15536;SDS011;7870;52.448;13.270;2023-02-18T07:48:10;7.30;;;2.10;;
15536;SDS011;7870;52.448;13.270;2023-02-18T07:50:41;5.38;;;1.88;;
15536;SDS011;7870;52.448;13.270;2023-02-18T07:53:10;9.38;;;2.22;;
15536;SDS011;7870;52.448;13.270;2023-02-18T07:55:38;6.50;;;1.77;;
15536;SDS011;7870;52.448;13.270;2023-02-18T07:58:15;7.63;;;2.40;;
15536;SDS011;7870;52.448;13.270;2023-02-18T08:00:46;6.25;;;2.30;;
15536;SDS011;7870;52.448;13.270;2023-02-18T08:03:18;9.23;;;1.80;;
15536;SDS011;7870;52.448;13.270;2023-02-18T08:05:49;8.85;;;1.83;;
15536;SDS011;7870;52.448;13.270;2023-02-18T08:08:20;8.15;;;1.83;;
15536;SDS011;7870;52.448;13.270;2023-02-18T08:10:50;7.80;;;3.08;;
15536;SDS011;7870;52.448;13.270;2023-02-18T08:13:18;8.35;;;2.05;;
15536;SDS011;7870;52.448;13.270;2023-02-18T08:15:45;7.65;;;2.85;;
15536;SDS011;7870;52.448;13.270;2023-02-18T08:18:16;13.10;;;3.15;;
15536;SDS011;7870;52.448;13.270;2023-02-18T08:20:45;7.78;;;2.72;;
15536;SDS011;7870;52.448;13.270;2023-02-18T08:23:13;9.30;;;2.22;;
15536;SDS011;7870;52.448;13.270;2023-02-18T08:25:45;7.65;;;2.33;;
15536;SDS011;7870;52.448;13.270;2023-02-18T08:28:17;11.27;;;2.10;;
15536;SDS011;7870;52.448;13.270;2023-02-18T08:30:48;9.10;;;2.37;;
15536;SDS011;7870;52.448;13.270;2023-02-18T08:33:16;8.98;;;2.45;;
15536;SDS011;7870;52.448;13.270;2023-02-18T08:35:50;10.13;;;2.30;;
15536;SDS011;7870;52.448;13.270;2023-02-18T08:38:19;9.20;;;2.30;;
15536;SDS011;7870;52.448;13.270;2023-02-18T08:40:46;7.32;;;2.20;;
15536;SDS011;7870;52.448;13.270;2023-02-18T08:43:13;6.65;;;1.88;;
15536;SDS011;7870;52.448;13.270;2023-02-18T08:45:41;10.63;;;2.60;;
15536;SDS011;7870;52.448;13.270;2023-02-18T08:48:09;7.63;;;2.20;;
15536;SDS011;7870;52.448;13.270;2023-02-18T08:50:45;9.98;;;3.30;;
15536;SDS011;7870;52.448;13.270;2023-02-18T08:53:12;11.20;;;2.28;;
15536;SDS011;7870;52.448;13.270;2023-02-18T08:55:39;8.23;;;2.30;;
15536;SDS011;7870;52.448;13.270;2023-02-18T08:58:06;13.95;;;2.63;;
15536;SDS011;7870;52.448;13.270;2023-02-18T09:00:32;10.18;;;2.85;;
15536;SDS011;7870;52.448;13.270;2023-02-18T09:02:59;8.98;;;2.78;;
15536;SDS011;7870;52.448;13.270;2023-02-18T09:05:25;8.88;;;2.58;;
15536;SDS011;7870;52.448;13.270;2023-02-18T09:07:52;14.10;;;3.15;;
15536;SDS011;7870;52.448;13.270;2023-02-18T09:10:19;10.13;;;3.20;;
15536;SDS011;7870;52.448;13.270;2023-02-18T09:12:46;13.40;;;3.15;;
15536;SDS011;7870;52.448;13.270;2023-02-18T09:15:12;13.68;;;3.13;;
15536;SDS011;7870;52.448;13.270;2023-02-18T09:17:39;10.25;;;2.95;;
15536;SDS011;7870;52.448;13.270;2023-02-18T09:20:05;15.43;;;5.13;;
15536;SDS011;7870;52.448;13.270;2023-02-18T09:22:32;14.35;;;5.03;;
15536;SDS011;7870;52.448;13.270;2023-02-18T09:24:59;10.15;;;2.92;;
15536;SDS011;7870;52.448;13.270;2023-02-18T09:27:25;11.85;;;3.58;;
15536;SDS011;7870;52.448;13.270;2023-02-18T09:29:52;10.85;;;3.47;;
15536;SDS011;7870;52.448;13.270;2023-02-18T09:32:19;9.75;;;3.65;;
15536;SDS011;7870;52.448;13.270;2023-02-18T09:34:59;7.75;;;3.25;;
15536;SDS011;7870;52.448;13.270;2023-02-18T09:37:26;10.38;;;3.70;;
15536;SDS011;7870;52.448;13.270;2023-02-18T09:39:54;11.13;;;3.40;;
15536;SDS011;7870;52.448;13.270;2023-02-18T09:42:22;12.13;;;3.17;;
15536;SDS011;7870;52.448;13.270;2023-02-18T09:44:54;11.18;;;3.35;;
15536;SDS011;7870;52.448;13.270;2023-02-18T09:47:25;13.57;;;3.45;;
15536;SDS011;7870;52.448;13.270;2023-02-18T09:49:57;12.40;;;2.80;;
15536;SDS011;7870;52.448;13.270;2023-02-18T09:52:31;10.98;;;3.60;;
15536;SDS011;7870;52.448;13.270;2023-02-18T09:55:00;9.33;;;3.33;;
15536;SDS011;7870;52.448;13.270;2023-02-18T09:57:40;11.15;;;3.38;;
15536;SDS011;7870;52.448;13.270;2023-02-18T10:00:13;11.38;;;3.80;;
15536;SDS011;7870;52.448;13.270;2023-02-18T10:02:40;13.52;;;3.70;;
15536;SDS011;7870;52.448;13.270;2023-02-18T10:05:20;12.38;;;3.20;;
15536;SDS011;7870;52.448;13.270;2023-02-18T10:07:47;11.02;;;3.15;;
15536;SDS011;7870;52.448;13.270;2023-02-18T10:10:36;17.55;;;3.58;;
15536;SDS011;7870;52.448;13.270;2023-02-18T10:13:06;10.18;;;2.80;;
15536;SDS011;7870;52.448;13.270;2023-02-18T10:15:39;11.77;;;3.20;;
15536;SDS011;7870;52.448;13.270;2023-02-18T10:18:08;12.68;;;3.25;;
15536;SDS011;7870;52.448;13.270;2023-02-18T10:23:33;10.70;;;3.67;;
15536;SDS011;7870;52.448;13.270;2023-02-18T10:26:04;11.25;;;3.35;;
15536;SDS011;7870;52.448;13.270;2023-02-18T10:28:33;14.70;;;3.40;;
15536;SDS011;7870;52.448;13.270;2023-02-18T10:31:02;9.45;;;3.08;;
15536;SDS011;7870;52.448;13.270;2023-02-18T10:33:35;13.32;;;4.30;;
15536;SDS011;7870;52.448;13.270;2023-02-18T10:44:37;12.75;;;3.45;;
15536;SDS011;7870;52.448;13.270;2023-02-18T10:52:43;8.93;;;3.13;;
15536;SDS011;7870;52.448;13.270;2023-02-18T10:55:13;9.13;;;3.38;;
15536;SDS011;7870;52.448;13.270;2023-02-18T10:57:50;9.75;;;3.22;;
15536;SDS011;7870;52.448;13.270;2023-02-18T11:00:23;11.68;;;3.20;;
15536;SDS011;7870;52.448;13.270;2023-02-18T11:03:02;10.05;;;3.80;;
15536;SDS011;7870;52.448;13.270;2023-02-18T11:05:29;11.63;;;3.83;;
15536;SDS011;7870;52.448;13.270;2023-02-18T11:08:00;7.43;;;2.87;;
15536;SDS011;7870;52.448;13.270;2023-02-18T11:10:31;11.88;;;3.65;;
15536;SDS011;7870;52.448;13.270;2023-02-18T11:13:00;6.32;;;2.05;;
15536;SDS011;7870;52.448;13.270;2023-02-18T11:15:29;6.18;;;3.00;;
15536;SDS011;7870;52.448;13.270;2023-02-18T11:17:57;8.60;;;2.50;;
15536;SDS011;7870;52.448;13.270;2023-02-18T11:20:41;6.35;;;2.10;;
15536;SDS011;7870;52.448;13.270;2023-02-18T11:23:20;4.93;;;2.20;;
15536;SDS011;7870;52.448;13.270;2023-02-18T11:26:03;4.60;;;2.60;;
15536;SDS011;7870;52.448;13.270;2023-02-18T11:28:43;9.73;;;3.45;;
15536;SDS011;7870;52.448;13.270;2023-02-18T11:31:15;5.78;;;2.60;;
15536;SDS011;7870;52.448;13.270;2023-02-18T11:33:55;6.13;;;2.90;;
15536;SDS011;7870;52.448;13.270;2023-02-18T11:38:54;8.57;;;3.20;;
15536;SDS011;7870;52.448;13.270;2023-02-18T11:41:27;4.93;;;3.50;;
15536;SDS011;7870;52.448;13.270;2023-02-18T11:46:59;5.28;;;3.17;;
15536;SDS011;7870;52.448;13.270;2023-02-18T11:49:31;6.47;;;3.30;;
15536;SDS011;7870;52.448;13.270;2023-02-18T11:52:03;4.80;;;3.00;;
15536;SDS011;7870;52.448;13.270;2023-02-18T11:54:57;5.30;;;3.38;;
15536;SDS011;7870;52.448;13.270;2023-02-18T11:57:45;4.35;;;3.03;;
15536;SDS011;7870;52.448;13.270;2023-02-18T12:00:19;7.63;;;3.20;;
15536;SDS011;7870;52.448;13.270;2023-02-18T12:03:01;6.07;;;3.28;;
15536;SDS011;7870;52.448;13.270;2023-02-18T12:05:32;5.63;;;3.72;;
15536;SDS011;7870;52.448;13.270;2023-02-18T12:08:12;8.20;;;4.65;;
15536;SDS011;7870;52.448;13.270;2023-02-18T12:10:48;4.93;;;3.70;;
15536;SDS011;7870;52.448;13.270;2023-02-18T12:13:26;6.68;;;5.03;;
15536;SDS011;7870;52.448;13.270;2023-02-18T12:16:05;6.63;;;4.88;;
15536;SDS011;7870;52.448;13.270;2023-02-18T12:18:50;6.32;;;4.03;;
15536;SDS011;7870;52.448;13.270;2023-02-18T12:21:25;6.20;;;4.15;;
15536;SDS011;7870;52.448;13.270;2023-02-18T12:24:00;6.22;;;4.50;;
15536;SDS011;7870;52.448;13.270;2023-02-18T12:26:38;6.90;;;4.57;;
15536;SDS011;7870;52.448;13.270;2023-02-18T12:29:36;7.88;;;4.90;;
15536;SDS011;7870;52.448;13.270;2023-02-18T12:32:10;6.25;;;4.78;;
15536;SDS011;7870;52.448;13.270;2023-02-18T12:37:44;6.53;;;4.90;;
15536;SDS011;7870;52.448;13.270;2023-02-18T13:03:26;7.03;;;4.75;;
15536;SDS011;7870;52.448;13.270;2023-02-18T13:06:46;6.50;;;4.40;;
15536;SDS011;7870;52.448;13.270;2023-02-18T13:09:29;5.72;;;4.30;;
15536;SDS011;7870;52.448;13.270;2023-02-18T13:12:04;5.50;;;4.10;;
15536;SDS011;7870;52.448;13.270;2023-02-18T13:14:43;4.32;;;3.63;;
15536;SDS011;7870;52.448;13.270;2023-02-18T13:17:15;4.55;;;3.08;;
15536;SDS011;7870;52.448;13.270;2023-02-18T13:19:51;3.38;;;3.08;;
15536;SDS011;7870;52.448;13.270;2023-02-18T13:22:20;3.58;;;2.58;;
15536;SDS011;7870;52.448;13.270;2023-02-18T13:24:48;4.13;;;2.28;;
15536;SDS011;7870;52.448;13.270;2023-02-18T13:30:15;2.58;;;2.08;;
15536;SDS011;7870;52.448;13.270;2023-02-18T13:35:42;3.33;;;2.72;;
15536;SDS011;7870;52.448;13.270;2023-02-18T13:38:23;3.97;;;2.83;;
15536;SDS011;7870;52.448;13.270;2023-02-18T13:40:59;2.53;;;2.30;;
15536;SDS011;7870;52.448;13.270;2023-02-18T13:48:41;4.18;;;2.90;;
15536;SDS011;7870;52.448;13.270;2023-02-18T13:51:11;3.45;;;3.03;;
15536;SDS011;7870;52.448;13.270;2023-02-18T13:53:41;4.72;;;3.60;;
15536;SDS011;7870;52.448;13.270;2023-02-18T13:56:09;3.92;;;3.20;;
15536;SDS011;7870;52.448;13.270;2023-02-18T13:58:50;4.80;;;2.63;;
15536;SDS011;7870;52.448;13.270;2023-02-18T14:01:22;3.20;;;2.90;;
15536;SDS011;7870;52.448;13.270;2023-02-18T14:03:57;4.22;;;3.00;;
15536;SDS011;7870;52.448;13.270;2023-02-18T14:09:02;3.67;;;3.20;;
15536;SDS011;7870;52.448;13.270;2023-02-18T14:11:57;3.63;;;3.22;;
15536;SDS011;7870;52.448;13.270;2023-02-18T14:14:50;3.33;;;3.03;;
15536;SDS011;7870;52.448;13.270;2023-02-18T14:22:51;3.10;;;2.80;;
15536;SDS011;7870;52.448;13.270;2023-02-18T14:27:52;3.95;;;3.28;;
15536;SDS011;7870;52.448;13.270;2023-02-18T14:30:28;3.78;;;2.88;;
15536;SDS011;7870;52.448;13.270;2023-02-18T14:33:01;3.35;;;2.72;;
15536;SDS011;7870;52.448;13.270;2023-02-18T14:35:37;3.20;;;2.35;;
15536;SDS011;7870;52.448;13.270;2023-02-18T14:44:03;4.25;;;2.15;;
15536;SDS011;7870;52.448;13.270;2023-02-18T14:46:46;2.90;;;2.05;;
15536;SDS011;7870;52.448;13.270;2023-02-18T14:49:28;3.05;;;2.10;;
15536;SDS011;7870;52.448;13.270;2023-02-18T14:52:02;3.22;;;1.52;;
15536;SDS011;7870;52.448;13.270;2023-02-18T14:54:30;4.72;;;3.67;;
15536;SDS011;7870;52.448;13.270;2023-02-18T14:59:24;2.42;;;1.50;;
15536;SDS011;7870;52.448;13.270;2023-02-18T15:01:54;2.05;;;1.40;;
15536;SDS011;7870;52.448;13.270;2023-02-18T15:04:23;3.55;;;1.58;;
15536;SDS011;7870;52.448;13.270;2023-02-18T15:06:57;2.00;;;1.20;;
15536;SDS011;7870;52.448;13.270;2023-02-18T15:09:26;2.28;;;1.40;;
15536;SDS011;7870;52.448;13.270;2023-02-18T15:11:58;2.72;;;1.05;;
15536;SDS011;7870;52.448;13.270;2023-02-18T15:14:28;3.05;;;1.75;;
15536;SDS011;7870;52.448;13.270;2023-02-18T15:16:56;4.18;;;1.30;;
15536;SDS011;7870;52.448;13.270;2023-02-18T15:19:24;3.50;;;2.72;;
15536;SDS011;7870;52.448;13.270;2023-02-18T15:21:52;1.95;;;1.17;;
15536;SDS011;7870;52.448;13.270;2023-02-18T15:24:30;2.40;;;1.33;;
15536;SDS011;7870;52.448;13.270;2023-02-18T15:26:59;1.38;;;1.00;;
15536;SDS011;7870;52.448;13.270;2023-02-18T15:29:28;1.35;;;1.00;;
15536;SDS011;7870;52.448;13.270;2023-02-18T15:31:57;1.15;;;1.00;;
15536;SDS011;7870;52.448;13.270;2023-02-18T15:37:04;1.90;;;1.00;;
15536;SDS011;7870;52.448;13.270;2023-02-18T15:39:33;3.22;;;2.20;;
15536;SDS011;7870;52.448;13.270;2023-02-18T15:42:01;1.02;;;0.90;;
15536;SDS011;7870;52.448;13.270;2023-02-18T15:44:54;2.80;;;1.40;;
15536;SDS011;7870;52.448;13.270;2023-02-18T15:47:27;3.03;;;1.33;;
15536;SDS011;7870;52.448;13.270;2023-02-18T15:49:54;3.47;;;1.30;;
15536;SDS011;7870;52.448;13.270;2023-02-18T15:52:27;2.40;;;1.30;;
15536;SDS011;7870;52.448;13.270;2023-02-18T15:54:55;2.78;;;1.25;;
15536;SDS011;7870;52.448;13.270;2023-02-18T15:57:27;2.28;;;1.20;;
15536;SDS011;7870;52.448;13.270;2023-02-18T15:59:59;1.88;;;1.05;;
15536;SDS011;7870;52.448;13.270;2023-02-18T16:02:31;1.40;;;1.10;;
15536;SDS011;7870;52.448;13.270;2023-02-18T16:04:58;1.35;;;0.85;;
15536;SDS011;7870;52.448;13.270;2023-02-18T16:10:12;2.13;;;1.30;;
15536;SDS011;7870;52.448;13.270;2023-02-18T16:12:51;2.25;;;0.90;;
15536;SDS011;7870;52.448;13.270;2023-02-18T16:15:29;1.35;;;0.95;;
15536;SDS011;7870;52.448;13.270;2023-02-18T16:17:58;3.22;;;1.17;;
15536;SDS011;7870;52.448;13.270;2023-02-18T16:20:28;2.88;;;1.02;;
15536;SDS011;7870;52.448;13.270;2023-02-18T16:22:58;1.70;;;1.10;;
15536;SDS011;7870;52.448;13.270;2023-02-18T16:25:49;2.65;;;1.48;;
15536;SDS011;7870;52.448;13.270;2023-02-18T16:28:25;1.70;;;1.02;;
15536;SDS011;7870;52.448;13.270;2023-02-18T16:33:23;1.75;;;0.95;;
15536;SDS011;7870;52.448;13.270;2023-02-18T16:35:49;2.20;;;1.13;;
15536;SDS011;7870;52.448;13.270;2023-02-18T16:38:20;2.30;;;1.10;;
15536;SDS011;7870;52.448;13.270;2023-02-18T16:40:53;1.88;;;0.90;;
15536;SDS011;7870;52.448;13.270;2023-02-18T16:43:24;1.95;;;1.10;;
15536;SDS011;7870;52.448;13.270;2023-02-18T16:45:54;2.45;;;1.10;;
15536;SDS011;7870;52.448;13.270;2023-02-18T16:48:32;1.92;;;0.90;;
15536;SDS011;7870;52.448;13.270;2023-02-18T16:51:00;2.42;;;0.98;;
15536;SDS011;7870;52.448;13.270;2023-02-18T16:53:28;2.00;;;0.88;;
15536;SDS011;7870;52.448;13.270;2023-02-18T16:55:55;3.08;;;1.00;;
15536;SDS011;7870;52.448;13.270;2023-02-18T16:58:21;2.55;;;1.00;;
15536;SDS011;7870;52.448;13.270;2023-02-18T17:00:48;2.42;;;0.90;;
15536;SDS011;7870;52.448;13.270;2023-02-18T17:03:17;2.30;;;1.13;;